Skip Navigation Links
NOAA logo - Click to go to the NOAA homepage
NOAA's National Weather Service
Alaska Aviation Weather Unit
  NWS logo - Click to go to the NWS homepage
Left Navbar Graphic     22 AKDT = 06 GMT

   
NOAA is celebrating 200 years of science, service, and stewardship. Visit the NOAA 200th celebration Web site to learn more.
USA.gov is the U.S. Government's official Web portal to all Federal, state and local government Web resources and services.
Facebook
NWS on Facebook

Important Change Regarding the AAWU Web Presence

 

Over the last several months, the AAWU has been working to navigate its webpages to a nationally supported server. Security, as well as other needs, have necessitated the change.  We have been given an extension for the site changeover while we diligently work at addressing feedback received. As of July 14, 2017, aawu.arh.noaa.gov will be discontinued. The new AAWU web address is weather.gov/aawu. It is now live and will run in-parallel with the old site until it is discontinued on July 14, 2017. Please continue to send any feedback or questions regarding the new webpages to nws.ar.aawu.webauthors@noaa.gov.  Thank you for your patience during this time of transition.
AAWU Home :: Display TAF Add Bookmark
TAF PAYA 260545Z 2606/2706 VRB03KT P6SM VCSH FEW010 BKN025 OVC035
     FM261000 10003KT P6SM BKN007 OVC015
     FM261900 24005KT P6SM SCT007 OVC015 PROB30 2703/2706 4SM -RA BR
      OVC007
      AMD LTD TO CLD VIS AND WIND=

METAR PAYA 260053Z AUTO VRB03KT 9SM OVC010 14/12 A3000 RMK AO2 CIG 006V013 SLP157 T01440122 TSNO= PAYA 260146Z AUTO 18004KT 10SM SCT011 OVC030 14/12 A2999= METAR PAYA 260153Z AUTO 16004KT 10SM SCT011 OVC030 15/12 A2999 RMK AO2 SLP154 T01500117 TSNO= PAYA 260206Z AUTO 17003KT 10SM BKN014 OVC029 15/12 A2998= PAYA 260218Z AUTO 16004KT 10SM SCT013 BKN029 OVC038 15/12 A2998= PAYA 260228Z AUTO 16004KT 10SM FEW013 OVC036 15/12 A2998 RMK AO2 T01500122 TSNO= METAR PAYA 260253Z AUTO 17005KT 10SM FEW012 BKN038 OVC070 15/12 A2998 RMK AO2 SLP150 T01500117 56011 TSNO= METAR PAYA 260353Z AUTO 18004KT 10SM FEW022 OVC070 15/12 A2997 RMK AO2 SLP149 T01500122 TSNO= SPECI PAYA 260410Z AUTO 16004KT 10SM BKN010 BKN023 OVC070 14/13 A2997 RMK AO2 T01440128 TSNO= METAR PAYA 260453Z AUTO 13004KT 10SM FEW010 BKN015 OVC036 14/12 A2996 RMK AO2 SLP147 T01440122 TSNO= PAYA 260510Z AUTO 14005KT 10SM SCT017 OVC032 14/12 A2996 RMK AO2 T01440122 TSNO= PAYA 260527Z AUTO 00000KT 10SM FEW017 BKN027 OVC032 14/12 A2996= METAR PAYA 260553Z AUTO 00000KT 7SM BKN016 OVC023 14/12 A2996 RMK AO2 SLP146 T01390122 10150 20139 56004 TSNO=
 Alaska TAF Map

NOAA's National Weather Service
Alaska Aviation Weather Unit
6930 Sand Lake Road
Anchorage, AK 99502-1845
Disclaimer
Credits
Glossary
Privacy Policy
About Us
Career Opportunities
Contact AAWU Internet Services Site last modified: April, 17th 2012